| time (UTC) | temp C | wind direction | speed KPH | gust KPH | rain 1hr cm | rain 24hr cm | rain mn cm | humidity % | barometer mb |
| 20260506135701 | 22 | 180 | 14.5 | 20.9 | 0.00 | 0.00 | 0.00 | 75 | 1016.0 |
| 20260506135202 | 22 | 175 | 8.0 | 12.9 | 0.00 | 0.00 | 0.00 | 75 | 1016.0 |
| 20260506134659 | 22 | 194 | 9.7 | 17.7 | 0.00 | 0.00 | 0.00 | 75 | 1016.0 |
| 20260506134201 | 22 | 187 | 14.5 | 19.3 | 0.00 | 0.00 | 0.00 | 75 | 1016.0 |
| 20260506133702 | 22 | 211 | 6.4 | 11.3 | 0.00 | 0.00 | 0.00 | 75 | 1016.0 |
| 20260506133202 | 22 | 185 | 11.3 | 19.3 | 0.00 | 0.00 | 0.00 | 75 | 1016.0 |
| 20260506132702 | 22 | 193 | 6.4 | 11.3 | 0.00 | 0.00 | 0.00 | 75 | 1016.0 |
| 20260506132202 | 22 | 211 | 6.4 | 11.3 | 0.00 | 0.00 | 0.00 | 74 | 1016.0 |
| 20260506131701 | 22 | 191 | 6.4 | 9.7 | 0.00 | 0.00 | 0.00 | 76 | 1016.0 |
| 20260506131203 | 22 | 242 | 11.3 | 16.1 | 0.00 | 0.00 | 0.00 | 74 | 1016.0 |
| 20260506130703 | 23 | 190 | 9.7 | 16.1 | 0.00 | 0.00 | 0.00 | 73 | 1016.0 |
| 20260506130204 | 22 | 224 | 6.4 | 8.0 | 0.00 | 0.00 | 0.00 | 74 | 1016.0 |
| 20260506125702 | 22 | 181 | 3.2 | 6.4 | 0.00 | 0.00 | 0.00 | 75 | 1016.0 |
| 20260506125201 | 22 | 208 | 6.4 | 9.7 | 0.00 | 0.00 | 0.00 | 75 | 1016.0 |
| 20260506124704 | 22 | 189 | 11.3 | 22.5 | 0.00 | 0.00 | 0.00 | 75 | 1016.0 |
| 20260506124201 | 21 | 174 | 9.7 | 14.5 | 0.00 | 0.00 | 0.00 | 76 | 1016.0 |
| 20260506123704 | 21 | 210 | 9.7 | 14.5 | 0.00 | 0.00 | 0.00 | 76 | 1016.0 |
| 20260506123201 | 21 | 175 | 9.7 | 17.7 | 0.00 | 0.00 | 0.00 | 77 | 1016.0 |
| 20260506122702 | 21 | 174 | 6.4 | 11.3 | 0.00 | 0.00 | 0.00 | 79 | 1016.0 |
| 20260506122201 | 20 | 162 | 3.2 | 6.4 | 0.00 | 0.00 | 0.00 | 81 | 1016.0 |
| 20260506121701 | 20 | 203 | 6.4 | 9.7 | 0.00 | 0.00 | 0.00 | 83 | 1016.0 |
| 20260506121159 | 20 | 194 | 4.8 | 8.0 | 0.00 | 0.00 | 0.00 | 84 | 1016.0 |
| 20260506120702 | 19 | 185 | 4.8 | 8.0 | 0.00 | 0.00 | 0.00 | 85 | 1016.0 |
| 20260506115724 | 18 | 225 | 4.8 | 4.8 | 0.00 | 0.00 | 0.00 | 89 | 1016.0 |
| 20260506115203 | 17 | 186 | 4.8 | 6.4 | 0.00 | 0.00 | 0.00 | 92 | 1016.0 |
| 20260506114703 | 17 | 158 | 3.2 | 6.4 | 0.00 | 0.00 | 0.00 | 95 | 1016.0 |
| 20260506114201 | 16 | 0 | 0.0 | 0.0 | 0.00 | 0.00 | 0.00 | 96 | 1016.0 |
| 20260506113703 | 16 | 174 | 0.0 | 1.6 | 0.00 | 0.00 | 0.00 | 97 | 1016.0 |
| 20260506113204 | 16 | 0 | 0.0 | 0.0 | 0.00 | 0.00 | 0.00 | 97 | 1016.0 |
| 20260506112701 | 16 | 207 | 1.6 | 4.8 | 0.00 | 0.00 | 0.00 | 98 | 1016.0 |
| 20260506112201 | 16 | 188 | 1.6 | 4.8 | 0.00 | 0.00 | 0.00 | 98 | 1016.0 |
| 20260506111704 | 15 | 0 | 0.0 | 0.0 | 0.00 | 0.00 | 0.00 | 98 | 1016.0 |
| 20260506111203 | 15 | 0 | 0.0 | 0.0 | 0.00 | 0.00 | 0.00 | 98 | 1016.0 |
| 20260506110703 | 15 | 0 | 0.0 | 0.0 | 0.00 | 0.00 | 0.00 | 98 | 1016.0 |
| 20260506110200 | 14 | 0 | 0.0 | 0.0 | 0.00 | 0.00 | 0.00 | 98 | 1016.0 |
| 20260506105703 | 14 | 0 | 0.0 | 0.0 | 0.00 | 0.00 | 0.00 | 98 | 1016.0 |
| 20260506105201 | 13 | 0 | 0.0 | 0.0 | 0.00 | 0.00 | 0.00 | 98 | 1016.0 |
| 20260506104701 | 13 | 0 | 0.0 | 0.0 | 0.00 | 0.00 | 0.00 | 98 | 1016.0 |
| 20260506104203 | 13 | 0 | 0.0 | 0.0 | 0.00 | 0.00 | 0.00 | 99 | 1016.0 |
| 20260506103701 | 13 | 27 | 0.0 | 3.2 | 0.00 | 0.00 | 0.00 | 98 | 1016.0 |
| 20260506103203 | 12 | 0 | 0.0 | 0.0 | 0.00 | 0.00 | 0.00 | 98 | 1016.0 |
| 20260506102702 | 12 | 0 | 0.0 | 0.0 | 0.00 | 0.00 | 0.00 | 98 | 1016.0 |
| 20260506102201 | 12 | 0 | 0.0 | 0.0 | 0.00 | 0.00 | 0.00 | 98 | 1016.0 |
| 20260506101702 | 12 | 0 | 0.0 | 0.0 | 0.00 | 0.00 | 0.00 | 98 | 1016.0 |
| 20260506101203 | 12 | 0 | 0.0 | 0.0 | 0.00 | 0.00 | 0.00 | 98 | 1015.0 |
| 20260506100703 | 12 | 0 | 0.0 | 0.0 | 0.00 | 0.00 | 0.00 | 98 | 1015.0 |
| 20260506100204 | 12 | 0 | 0.0 | 0.0 | 0.00 | 0.00 | 0.00 | 98 | 1015.0 |
| 20260506095701 | 12 | 0 | 0.0 | 0.0 | 0.00 | 0.00 | 0.00 | 98 | 1015.0 |
| 20260506095201 | 12 | 0 | 0.0 | 0.0 | 0.00 | 0.00 | 0.00 | 98 | 1015.0 |
| 20260506094701 | 12 | 0 | 0.0 | 0.0 | 0.00 | 0.00 | 0.00 | 98 | 1015.0 |
| 20260506094201 | 12 | 0 | 0.0 | 0.0 | 0.00 | 0.00 | 0.00 | 98 | 1015.0 |
| 20260506093703 | 12 | 0 | 0.0 | 0.0 | 0.00 | 0.00 | 0.00 | 98 | 1016.0 |
| 20260506093203 | 12 | 0 | 0.0 | 0.0 | 0.00 | 0.00 | 0.00 | 98 | 1016.0 |
| 20260506092702 | 12 | 0 | 0.0 | 0.0 | 0.00 | 0.00 | 0.00 | 98 | 1016.0 |
| 20260506092202 | 12 | 0 | 0.0 | 0.0 | 0.00 | 0.00 | 0.00 | 98 | 1016.0 |
| 20260506091701 | 12 | 0 | 0.0 | 0.0 | 0.00 | 0.00 | 0.00 | 98 | 1016.0 |
| 20260506091202 | 12 | 0 | 0.0 | 0.0 | 0.00 | 0.00 | 0.00 | 98 | 1015.0 |
| 20260506090703 | 12 | 0 | 0.0 | 0.0 | 0.00 | 0.00 | 0.00 | 98 | 1016.0 |
| 20260506090203 | 12 | 104 | 0.0 | 1.6 | 0.00 | 0.00 | 0.00 | 98 | 1016.0 |
| 20260506085701 | 12 | 0 | 0.0 | 0.0 | 0.00 | 0.00 | 0.00 | 98 | 1016.0 |
| 20260506085201 | 13 | 0 | 0.0 | 0.0 | 0.00 | 0.00 | 0.00 | 98 | 1016.0 |
| 20260506084700 | 13 | 0 | 0.0 | 0.0 | 0.00 | 0.00 | 0.00 | 98 | 1016.0 |
| 20260506084201 | 13 | 0 | 0.0 | 0.0 | 0.00 | 0.00 | 0.00 | 98 | 1016.0 |
| 20260506083702 | 12 | 0 | 0.0 | 0.0 | 0.00 | 0.00 | 0.00 | 97 | 1016.0 |
| 20260506083202 | 12 | 0 | 0.0 | 0.0 | 0.00 | 0.00 | 0.00 | 97 | 1016.0 |
| 20260506082701 | 12 | 0 | 0.0 | 0.0 | 0.00 | 0.00 | 0.00 | 97 | 1016.0 |
| 20260506082201 | 12 | 0 | 0.0 | 0.0 | 0.00 | 0.00 | 0.00 | 97 | 1016.0 |
| 20260506081702 | 12 | 0 | 0.0 | 0.0 | 0.00 | 0.00 | 0.00 | 97 | 1016.0 |
| 20260506081202 | 13 | 0 | 0.0 | 0.0 | 0.00 | 0.00 | 0.00 | 97 | 1016.0 |
| 20260506080702 | 13 | 0 | 0.0 | 0.0 | 0.00 | 0.00 | 0.00 | 97 | 1016.0 |
| 20260506080203 | 13 | 0 | 0.0 | 0.0 | 0.00 | 0.00 | 0.00 | 97 | 1016.0 |
| 20260506073201 | 13 | 0 | 0.0 | 0.0 | 0.00 | 0.00 | 0.00 | 96 | 1016.0 |
| 20260506072233 | 13 | 0 | 0.0 | 0.0 | 0.00 | 0.00 | 0.00 | 96 | 1016.0 |
| 20260506071702 | 13 | 0 | 0.0 | 0.0 | 0.00 | 0.00 | 0.00 | 96 | 1016.0 |
| 20260506071202 | 13 | 0 | 0.0 | 0.0 | 0.00 | 0.00 | 0.00 | 96 | 1016.0 |
| 20260506070703 | 13 | 0 | 0.0 | 0.0 | 0.00 | 0.00 | 0.00 | 95 | 1016.0 |
| 20260506070203 | 13 | 0 | 0.0 | 0.0 | 0.00 | 0.00 | 0.00 | 95 | 1016.0 |
| 20260506062203 | 14 | 0 | 0.0 | 0.0 | 0.00 | 0.00 | 0.00 | 91 | 1016.0 |
| 20260506061700 | 15 | 0 | 0.0 | 0.0 | 0.00 | 0.00 | 0.00 | 91 | 1016.0 |
| 20260506061202 | 15 | 0 | 0.0 | 0.0 | 0.00 | 0.00 | 0.00 | 90 | 1016.0 |
| 20260506060702 | 15 | 0 | 0.0 | 0.0 | 0.00 | 0.00 | 0.00 | 90 | 1016.0 |
| 20260506060201 | 15 | 0 | 0.0 | 0.0 | 0.00 | 0.00 | 0.00 | 89 | 1016.0 |
| 20260506051201 | 16 | 199 | 1.6 | 3.2 | 0.00 | 0.00 | 0.00 | 86 | 1017.0 |
| 20260506050703 | 16 | 156 | 1.6 | 3.2 | 0.00 | 0.00 | 0.00 | 85 | 1017.0 |
| 20260506050201 | 16 | 240 | 1.6 | 3.2 | 0.00 | 0.00 | 0.00 | 85 | 1017.0 |
| 20260506044700 | 16 | 227 | 3.2 | 6.4 | 0.00 | 0.00 | 0.00 | 84 | 1017.0 |
| 20260506044200 | 17 | 215 | 4.8 | 6.4 | 0.00 | 0.00 | 0.00 | 83 | 1017.0 |
| 20260506043703 | 17 | 210 | 1.6 | 4.8 | 0.00 | 0.00 | 0.00 | 83 | 1017.0 |
| 20260506043201 | 17 | 232 | 3.2 | 4.8 | 0.00 | 0.00 | 0.00 | 83 | 1017.0 |
| 20260506042659 | 17 | 193 | 4.8 | 6.4 | 0.00 | 0.00 | 0.00 | 82 | 1017.0 |
| 20260506042202 | 17 | 213 | 1.6 | 6.4 | 0.00 | 0.00 | 0.00 | 82 | 1017.0 |
| 20260506041701 | 17 | 199 | 1.6 | 4.8 | 0.00 | 0.00 | 0.00 | 82 | 1017.0 |
| 20260506041201 | 17 | 243 | 0.0 | 3.2 | 0.00 | 0.00 | 0.00 | 81 | 1017.0 |
| 20260506040700 | 17 | 205 | 4.8 | 6.4 | 0.00 | 0.00 | 0.00 | 81 | 1017.0 |
| 20260506040201 | 17 | 206 | 3.2 | 6.4 | 0.00 | 0.00 | 0.00 | 80 | 1017.0 |
| 20260506035659 | 17 | 200 | 4.8 | 8.0 | 0.00 | 0.00 | 0.00 | 80 | 1017.0 |
| 20260506035200 | 17 | 232 | 1.6 | 4.8 | 0.00 | 0.00 | 0.00 | 80 | 1017.0 |
| 20260506034659 | 17 | 203 | 4.8 | 6.4 | 0.00 | 0.00 | 0.00 | 80 | 1017.0 |
| 20260506034202 | 17 | 201 | 4.8 | 8.0 | 0.00 | 0.00 | 0.00 | 79 | 1017.0 |
| 20260506033700 | 17 | 202 | 6.4 | 9.7 | 0.00 | 0.00 | 0.00 | 79 | 1017.0 |
| 20260506033203 | 18 | 202 | 6.4 | 9.7 | 0.00 | 0.00 | 0.00 | 78 | 1017.0 |
| 20260506032700 | 18 | 201 | 6.4 | 11.3 | 0.00 | 0.00 | 0.00 | 78 | 1017.0 |
| 20260506032200 | 18 | 203 | 4.8 | 9.7 | 0.00 | 0.00 | 0.00 | 78 | 1017.0 |
| 20260506031700 | 18 | 217 | 3.2 | 6.4 | 0.00 | 0.00 | 0.00 | 78 | 1017.0 |
| 20260506031210 | 18 | 186 | 3.2 | 8.0 | 0.00 | 0.00 | 0.00 | 78 | 1017.0 |
| 20260506030700 | 18 | 161 | 4.8 | 6.4 | 0.00 | 0.00 | 0.00 | 78 | 1017.0 |
| 20260506030203 | 18 | 186 | 9.7 | 16.1 | 0.00 | 0.00 | 0.00 | 78 | 1018.0 |
| 20260506025703 | 18 | 193 | 4.8 | 8.0 | 0.00 | 0.00 | 0.00 | 77 | 1018.0 |
| 20260506025201 | 18 | 198 | 4.8 | 6.4 | 0.00 | 0.00 | 0.00 | 78 | 1018.0 |
| 20260506024700 | 18 | 210 | 6.4 | 8.0 | 0.00 | 0.00 | 0.00 | 78 | 1018.0 |
| 20260506024201 | 18 | 183 | 6.4 | 9.7 | 0.00 | 0.00 | 0.00 | 78 | 1018.0 |
| 20260506023700 | 18 | 187 | 3.2 | 6.4 | 0.00 | 0.00 | 0.00 | 77 | 1017.0 |
| 20260506023159 | 18 | 194 | 3.2 | 6.4 | 0.00 | 0.00 | 0.00 | 77 | 1017.0 |
| 20260506022702 | 18 | 161 | 6.4 | 8.0 | 0.00 | 0.00 | 0.00 | 77 | 1017.0 |
| 20260506022201 | 18 | 177 | 4.8 | 6.4 | 0.00 | 0.00 | 0.00 | 76 | 1018.0 |
| 20260506021700 | 18 | 189 | 6.4 | 8.0 | 0.00 | 0.00 | 0.00 | 77 | 1018.0 |
| 20260506021203 | 18 | 205 | 0.0 | 3.2 | 0.00 | 0.00 | 0.00 | 76 | 1017.0 |
| 20260506020702 | 18 | 173 | 4.8 | 8.0 | 0.00 | 0.00 | 0.00 | 76 | 1017.0 |
| 20260506020202 | 18 | 203 | 4.8 | 8.0 | 0.00 | 0.00 | 0.00 | 75 | 1017.0 |
| 20260506015701 | 18 | 193 | 6.4 | 8.0 | 0.00 | 0.00 | 0.00 | 76 | 1017.0 |
| 20260506015159 | 18 | 187 | 8.0 | 12.9 | 0.00 | 0.00 | 0.00 | 75 | 1017.0 |
| 20260506014701 | 18 | 156 | 3.2 | 6.4 | 0.00 | 0.00 | 0.00 | 75 | 1017.0 |
| 20260506014201 | 18 | 173 | 6.4 | 8.0 | 0.00 | 0.00 | 0.00 | 75 | 1017.0 |
| 20260506013701 | 18 | 183 | 6.4 | 9.7 | 0.00 | 0.00 | 0.00 | 75 | 1017.0 |
| 20260506013200 | 18 | 178 | 4.8 | 8.0 | 0.00 | 0.00 | 0.00 | 75 | 1017.0 |
| 20260506012659 | 18 | 191 | 4.8 | 8.0 | 0.00 | 0.00 | 0.00 | 74 | 1017.0 |
| 20260506012201 | 19 | 173 | 4.8 | 6.4 | 0.00 | 0.00 | 0.00 | 74 | 1017.0 |
| 20260506011702 | 19 | 182 | 3.2 | 6.4 | 0.00 | 0.00 | 0.00 | 74 | 1017.0 |
| 20260506011202 | 19 | 179 | 3.2 | 6.4 | 0.00 | 0.00 | 0.00 | 73 | 1017.0 |
| 20260506010702 | 19 | 184 | 4.8 | 9.7 | 0.00 | 0.00 | 0.00 | 73 | 1017.0 |
| 20260506010202 | 19 | 161 | 3.2 | 6.4 | 0.00 | 0.00 | 0.00 | 72 | 1017.0 |
| 20260506005701 | 19 | 187 | 6.4 | 11.3 | 0.00 | 0.00 | 0.00 | 72 | 1017.0 |
| 20260506005202 | 20 | 166 | 6.4 | 9.7 | 0.00 | 0.00 | 0.00 | 72 | 1017.0 |
| 20260506004701 | 20 | 194 | 8.0 | 14.5 | 0.00 | 0.00 | 0.00 | 71 | 1017.0 |
| 20260506004201 | 20 | 183 | 8.0 | 14.5 | 0.00 | 0.00 | 0.00 | 71 | 1017.0 |
| 20260506003701 | 20 | 194 | 4.8 | 8.0 | 0.00 | 0.00 | 0.00 | 71 | 1017.0 |
| 20260506003203 | 20 | 163 | 6.4 | 9.7 | 0.00 | 0.00 | 0.00 | 70 | 1017.0 |
| 20260506002702 | 20 | 188 | 4.8 | 8.0 | 0.00 | 0.00 | 0.00 | 70 | 1017.0 |
| 20260506002201 | 20 | 197 | 9.7 | 16.1 | 0.00 | 0.00 | 0.00 | 70 | 1017.0 |
| 20260506001701 | 20 | 213 | 3.2 | 8.0 | 0.00 | 0.00 | 0.00 | 70 | 1017.0 |
| 20260506001200 | 20 | 209 | 1.6 | 4.8 | 0.00 | 0.00 | 0.00 | 69 | 1017.0 |
| 20260506000702 | 20 | 179 | 1.6 | 4.8 | 0.00 | 0.00 | 0.00 | 69 | 1017.0 |
| 20260506000204 | 20 | 185 | 1.6 | 6.4 | 0.00 | 0.00 | 0.00 | 68 | 1017.0 |
| 20260505235703 | 21 | 198 | 8.0 | 14.5 | 0.00 | 0.00 | 0.00 | 67 | 1017.0 |
| 20260505235203 | 21 | 205 | 8.0 | 12.9 | 0.00 | 0.00 | 0.00 | 67 | 1017.0 |
| 20260505234702 | 21 | 193 | 8.0 | 12.9 | 0.00 | 0.00 | 0.00 | 66 | 1017.0 |
| 20260505234200 | 21 | 176 | 8.0 | 11.3 | 0.00 | 0.00 | 0.00 | 66 | 1016.0 |
| 20260505233701 | 21 | 186 | 8.0 | 11.3 | 0.00 | 0.00 | 0.00 | 65 | 1016.0 |
| 20260505233200 | 21 | 191 | 8.0 | 14.5 | 0.00 | 0.00 | 0.00 | 65 | 1016.0 |
| 20260505232659 | 21 | 195 | 11.3 | 14.5 | 0.00 | 0.00 | 0.00 | 64 | 1016.0 |
| 20260505232200 | 22 | 199 | 4.8 | 6.4 | 0.00 | 0.00 | 0.00 | 64 | 1016.0 |
| 20260505231702 | 22 | 184 | 11.3 | 20.9 | 0.00 | 0.00 | 0.00 | 64 | 1016.0 |
| 20260505231201 | 22 | 173 | 6.4 | 11.3 | 0.00 | 0.00 | 0.00 | 65 | 1016.0 |
| 20260505230702 | 22 | 166 | 6.4 | 11.3 | 0.00 | 0.00 | 0.00 | 65 | 1016.0 |
| 20260505230203 | 22 | 163 | 6.4 | 17.7 | 0.00 | 0.00 | 0.00 | 64 | 1016.0 |
| 20260505225701 | 22 | 197 | 11.3 | 17.7 | 0.00 | 0.00 | 0.00 | 65 | 1016.0 |
| 20260505225200 | 22 | 178 | 4.8 | 8.0 | 0.00 | 0.00 | 0.00 | 65 | 1016.0 |
| 20260505224659 | 22 | 180 | 9.7 | 17.7 | 0.00 | 0.00 | 0.00 | 64 | 1016.0 |
| 20260505224159 | 23 | 192 | 9.7 | 22.5 | 0.00 | 0.00 | 0.00 | 63 | 1016.0 |
| 20260505223659 | 23 | 211 | 6.4 | 12.9 | 0.00 | 0.00 | 0.00 | 63 | 1016.0 |
| 20260505223202 | 23 | 177 | 8.0 | 12.9 | 0.00 | 0.00 | 0.00 | 63 | 1016.0 |
| 20260505222701 | 23 | 160 | 9.7 | 12.9 | 0.00 | 0.00 | 0.00 | 62 | 1016.0 |
| 20260505222200 | 23 | 186 | 11.3 | 19.3 | 0.00 | 0.00 | 0.00 | 62 | 1016.0 |
| 20260505221228 | 23 | 173 | 4.8 | 9.7 | 0.00 | 0.00 | 0.00 | 61 | 1016.0 |
| 20260505220701 | 23 | 180 | 8.0 | 12.9 | 0.00 | 0.00 | 0.00 | 60 | 1016.0 |
| 20260505220202 | 23 | 191 | 12.9 | 20.9 | 0.00 | 0.00 | 0.00 | 60 | 1016.0 |
| 20260505215701 | 23 | 188 | 14.5 | 22.5 | 0.00 | 0.00 | 0.00 | 60 | 1016.0 |
| 20260505215202 | 24 | 190 | 12.9 | 19.3 | 0.00 | 0.00 | 0.00 | 59 | 1016.0 |
| 20260505214700 | 24 | 170 | 12.9 | 20.9 | 0.00 | 0.00 | 0.00 | 58 | 1016.0 |
| 20260505214201 | 24 | 184 | 8.0 | 12.9 | 0.00 | 0.00 | 0.00 | 57 | 1016.0 |
| 20260505213701 | 24 | 178 | 9.7 | 17.7 | 0.00 | 0.00 | 0.00 | 58 | 1016.0 |
| 20260505213203 | 24 | 205 | 9.7 | 14.5 | 0.00 | 0.00 | 0.00 | 59 | 1016.0 |
| 20260505212701 | 25 | 200 | 14.5 | 17.7 | 0.00 | 0.00 | 0.00 | 57 | 1016.0 |
| 20260505212203 | 25 | 179 | 8.0 | 14.5 | 0.00 | 0.00 | 0.00 | 57 | 1016.0 |
| 20260505211703 | 25 | 173 | 11.3 | 16.1 | 0.00 | 0.00 | 0.00 | 56 | 1016.0 |
| 20260505211203 | 24 | 194 | 8.0 | 12.9 | 0.00 | 0.00 | 0.00 | 57 | 1016.0 |
| 20260505210703 | 24 | 196 | 9.7 | 16.1 | 0.00 | 0.00 | 0.00 | 57 | 1016.0 |
| 20260505210204 | 24 | 204 | 6.4 | 12.9 | 0.00 | 0.00 | 0.00 | 58 | 1016.0 |
| 20260505205703 | 25 | 189 | 9.7 | 20.9 | 0.00 | 0.00 | 0.00 | 57 | 1016.0 |
| 20260505205201 | 25 | 191 | 9.7 | 16.1 | 0.00 | 0.00 | 0.00 | 56 | 1016.0 |
| 20260505204703 | 25 | 191 | 11.3 | 22.5 | 0.00 | 0.00 | 0.00 | 56 | 1016.0 |
| 20260505204203 | 25 | 190 | 8.0 | 19.3 | 0.00 | 0.00 | 0.00 | 55 | 1016.0 |
| 20260505203701 | 25 | 203 | 8.0 | 16.1 | 0.00 | 0.00 | 0.00 | 56 | 1016.0 |
| 20260505203203 | 25 | 187 | 14.5 | 17.7 | 0.00 | 0.00 | 0.00 | 54 | 1016.0 |
| 20260505202702 | 25 | 175 | 11.3 | 14.5 | 0.00 | 0.00 | 0.00 | 54 | 1016.0 |
| 20260505202203 | 25 | 186 | 8.0 | 14.5 | 0.00 | 0.00 | 0.00 | 54 | 1016.0 |
| 20260505201703 | 25 | 184 | 8.0 | 16.1 | 0.00 | 0.00 | 0.00 | 54 | 1016.0 |
| 20260505201202 | 25 | 193 | 8.0 | 14.5 | 0.00 | 0.00 | 0.00 | 54 | 1016.0 |
| 20260505200703 | 26 | 191 | 8.0 | 14.5 | 0.00 | 0.00 | 0.00 | 52 | 1016.0 |
| 20260505200204 | 26 | 187 | 11.3 | 17.7 | 0.00 | 0.00 | 0.00 | 53 | 1016.0 |
| 20260505195703 | 26 | 205 | 6.4 | 11.3 | 0.00 | 0.00 | 0.00 | 54 | 1016.0 |
| 20260505195203 | 26 | 202 | 14.5 | 20.9 | 0.00 | 0.00 | 0.00 | 52 | 1016.0 |
| 20260505194701 | 26 | 187 | 8.0 | 16.1 | 0.00 | 0.00 | 0.00 | 52 | 1016.0 |
| 20260505194201 | 26 | 187 | 14.5 | 19.3 | 0.00 | 0.00 | 0.00 | 50 | 1017.0 |
| 20260505193701 | 26 | 210 | 9.7 | 16.1 | 0.00 | 0.00 | 0.00 | 52 | 1017.0 |
| 20260505193202 | 26 | 204 | 9.7 | 16.1 | 0.00 | 0.00 | 0.00 | 50 | 1017.0 |
| 20260505192701 | 27 | 185 | 11.3 | 17.7 | 0.00 | 0.00 | 0.00 | 50 | 1017.0 |
| 20260505192202 | 27 | 247 | 4.8 | 8.0 | 0.00 | 0.00 | 0.00 | 52 | 1017.0 |
| 20260505191701 | 27 | 210 | 8.0 | 11.3 | 0.00 | 0.00 | 0.00 | 50 | 1017.0 |
| 20260505191202 | 27 | 208 | 4.8 | 8.0 | 0.00 | 0.00 | 0.00 | 50 | 1017.0 |
| 20260505190701 | 27 | 205 | 6.4 | 11.3 | 0.00 | 0.00 | 0.00 | 51 | 1017.0 |
| 20260505190200 | 27 | 214 | 8.0 | 14.5 | 0.00 | 0.00 | 0.00 | 50 | 1017.0 |
| 20260505185703 | 27 | 190 | 6.4 | 11.3 | 0.00 | 0.00 | 0.00 | 51 | 1017.0 |
| 20260505185202 | 26 | 217 | 6.4 | 11.3 | 0.00 | 0.00 | 0.00 | 51 | 1017.0 |
| 20260505184701 | 26 | 183 | 11.3 | 17.7 | 0.00 | 0.00 | 0.00 | 51 | 1017.0 |
| 20260505184203 | 26 | 194 | 14.5 | 19.3 | 0.00 | 0.00 | 0.00 | 49 | 1017.0 |
| 20260505183702 | 27 | 167 | 9.7 | 14.5 | 0.00 | 0.00 | 0.00 | 48 | 1017.0 |
| 20260505183203 | 26 | 190 | 9.7 | 17.7 | 0.00 | 0.00 | 0.00 | 48 | 1017.0 |
| 20260505182701 | 26 | 183 | 3.2 | 8.0 | 0.00 | 0.00 | 0.00 | 49 | 1017.0 |
| 20260505182200 | 26 | 194 | 9.7 | 17.7 | 0.00 | 0.00 | 0.00 | 49 | 1017.0 |
| 20260505181701 | 26 | 198 | 9.7 | 16.1 | 0.00 | 0.00 | 0.00 | 50 | 1017.0 |
| 20260505181201 | 26 | 165 | 14.5 | 22.5 | 0.00 | 0.00 | 0.00 | 49 | 1017.0 |
| 20260505180701 | 26 | 227 | 9.7 | 16.1 | 0.00 | 0.00 | 0.00 | 50 | 1017.0 |
| 20260505180201 | 26 | 183 | 11.3 | 16.1 | 0.00 | 0.00 | 0.00 | 49 | 1018.0 |
| 20260505175700 | 25 | 204 | 8.0 | 12.9 | 0.00 | 0.00 | 0.00 | 52 | 1018.0 |
| 20260505175204 | 26 | 212 | 6.4 | 12.9 | 0.00 | 0.00 | 0.00 | 53 | 1017.0 |
| 20260505174702 | 25 | 217 | 6.4 | 14.5 | 0.00 | 0.00 | 0.00 | 52 | 1017.0 |
| 20260505174204 | 26 | 211 | 8.0 | 12.9 | 0.00 | 0.00 | 0.00 | 52 | 1018.0 |
| 20260505173704 | 26 | 190 | 8.0 | 14.5 | 0.00 | 0.00 | 0.00 | 50 | 1018.0 |
| 20260505173204 | 26 | 173 | 8.0 | 14.5 | 0.00 | 0.00 | 0.00 | 51 | 1018.0 |
| 20260505172704 | 26 | 187 | 9.7 | 14.5 | 0.00 | 0.00 | 0.00 | 51 | 1018.0 |
| 20260505172203 | 26 | 178 | 6.4 | 11.3 | 0.00 | 0.00 | 0.00 | 52 | 1018.0 |
| 20260505171704 | 26 | 184 | 9.7 | 16.1 | 0.00 | 0.00 | 0.00 | 53 | 1018.0 |
| 20260505171202 | 26 | 197 | 4.8 | 8.0 | 0.00 | 0.00 | 0.00 | 54 | 1018.0 |
| 20260505170702 | 25 | 203 | 8.0 | 14.5 | 0.00 | 0.00 | 0.00 | 53 | 1018.0 |
| 20260505170159 | 25 | 224 | 6.4 | 12.9 | 0.00 | 0.00 | 0.00 | 54 | 1018.0 |
| 20260505165702 | 25 | 203 | 6.4 | 9.7 | 0.00 | 0.00 | 0.00 | 55 | 1018.0 |
| 20260505165201 | 25 | 182 | 12.9 | 16.1 | 0.00 | 0.00 | 0.00 | 53 | 1018.0 |
| 20260505164702 | 25 | 250 | 3.2 | 6.4 | 0.00 | 0.00 | 0.00 | 57 | 1018.0 |
| 20260505164201 | 25 | 192 | 9.7 | 14.5 | 0.00 | 0.00 | 0.00 | 55 | 1018.0 |
| 20260505163703 | 25 | 182 | 9.7 | 14.5 | 0.00 | 0.00 | 0.00 | 55 | 1018.0 |
| 20260505163202 | 25 | 198 | 8.0 | 14.5 | 0.00 | 0.00 | 0.00 | 55 | 1018.0 |
| 20260505162702 | 25 | 207 | 6.4 | 11.3 | 0.00 | 0.00 | 0.00 | 55 | 1018.0 |
| 20260505162201 | 25 | 174 | 8.0 | 14.5 | 0.00 | 0.00 | 0.00 | 55 | 1018.0 |
| 20260505161702 | 25 | 206 | 11.3 | 14.5 | 0.00 | 0.00 | 0.00 | 55 | 1019.0 |
| 20260505161201 | 25 | 205 | 11.3 | 14.5 | 0.00 | 0.00 | 0.00 | 55 | 1019.0 |
| 20260505160701 | 24 | 190 | 6.4 | 14.5 | 0.00 | 0.00 | 0.00 | 57 | 1019.0 |
| 20260505160201 | 24 | 252 | 3.2 | 8.0 | 0.00 | 0.00 | 0.00 | 57 | 1019.0 |
| 20260505153202 | 23 | 190 | 9.7 | 12.9 | 0.00 | 0.00 | 0.00 | 57 | 1019.0 |
| 20260505152703 | 24 | 176 | 9.7 | 16.1 | 0.00 | 0.00 | 0.00 | 57 | 1019.0 |
| 20260505152202 | 24 | 216 | 9.7 | 14.5 | 0.00 | 0.00 | 0.00 | 57 | 1019.0 |
| 20260505151704 | 23 | 176 | 6.4 | 11.3 | 0.00 | 0.00 | 0.00 | 58 | 1019.0 |
| 20260505151203 | 23 | 186 | 6.4 | 11.3 | 0.00 | 0.00 | 0.00 | 58 | 1019.0 |
| 20260505150701 | 23 | 176 | 9.7 | 14.5 | 0.00 | 0.00 | 0.00 | 59 | 1019.0 |
| 20260505150201 | 23 | 193 | 9.7 | 16.1 | 0.00 | 0.00 | 0.00 | 57 | 1019.0 |
| 20260505140202 | 22 | 182 | 6.4 | 9.7 | 0.00 | 0.00 | 0.00 | 63 | 1019.0 |